Time;durP1;ratioP1;P1;durP2;ratioP2;P2;SDS_P1;SDS_P2;PMS_P1;PMS_P2;Temp;Humidity;BMP_temperature;BMP_pressure;BME280_temperature;BME280_humidity;BME280_pressure;Samples;Min_cycle;Max_cycle;Signal;HPM_P1;HPM_P2
2022/03/05 00:00:32;;;;;;;2.60;1.50;;;;;;;1.68;56.28;102149.81;4921467;28;116734;-50
2022/03/05 00:02:58;;;;;;;1.70;1.47;;;;;;;1.72;56.15;102148.63;4920207;28;97263;-48
2022/03/05 00:05:24;;;;;;;1.83;1.60;;;;;;;1.67;56.15;102157.19;4922681;28;97615;-48
2022/03/05 00:07:49;;;;;;;2.30;1.87;;;;;;;1.65;56.13;102145.16;4914805;28;116023;-47
2022/03/05 00:10:14;;;;;;;2.07;1.90;;;;;;;1.62;56.46;102149.44;4924657;28;97070;-49
2022/03/05 00:12:40;;;;;;;2.87;1.60;;;;;;;1.62;56.64;102143.25;4926181;28;96727;-47
2022/03/05 00:15:06;;;;;;;2.60;1.73;;;;;;;1.66;56.56;102146.72;4921015;28;97428;-48
2022/03/05 00:17:32;;;;;;;2.20;2.00;;;;;;;1.62;56.37;102152.16;4921183;28;96909;-49
2022/03/05 00:19:57;;;;;;;2.40;1.97;;;;;;;1.56;56.58;102147.53;4920226;28;96980;-49
2022/03/05 00:22:23;;;;;;;1.67;1.57;;;;;;;1.50;56.73;102141.75;4917581;28;97226;-48
2022/03/05 00:24:48;;;;;;;1.60;1.50;;;;;;;1.50;56.94;102139.81;4921054;28;96836;-47
2022/03/05 00:27:14;;;;;;;2.73;1.50;;;;;;;1.50;56.91;102149.88;4921591;28;97046;-49
2022/03/05 00:29:40;;;;;;;1.83;1.70;;;;;;;1.49;56.63;102153.75;4922561;28;96946;-47
2022/03/05 00:32:06;;;;;;;2.33;1.73;;;;;;;1.46;56.86;102155.31;4921175;28;96967;-47
2022/03/05 00:34:31;;;;;;;3.20;1.73;;;;;;;1.49;56.89;102151.81;4922109;28;98139;-49
2022/03/05 00:36:56;;;;;;;5.50;1.70;;;;;;;1.47;57.14;102145.25;4921347;28;97384;-48
2022/03/05 00:39:22;;;;;;;1.80;1.33;;;;;;;1.48;56.67;102150.28;4920650;28;98111;-48
2022/03/05 00:41:47;;;;;;;1.53;1.03;;;;;;;1.48;56.81;102152.22;4920301;28;116567;-47
2022/03/05 00:44:13;;;;;;;2.57;1.60;;;;;;;1.46;57.03;102157.28;4920502;28;96902;-49
2022/03/05 00:46:40;;;;;;;1.60;1.50;;;;;;;1.48;57.00;102153.00;4920443;28;97207;-48
2022/03/05 00:49:06;;;;;;;1.93;1.47;;;;;;;1.47;56.88;102154.16;4921747;28;99687;-48
2022/03/05 00:51:31;;;;;;;1.77;1.30;;;;;;;1.47;56.98;102161.50;4919034;28;97013;-48
2022/03/05 00:53:56;;;;;;;1.67;1.57;;;;;;;1.45;56.80;102155.72;4920584;28;97239;-47
2022/03/05 00:56:22;;;;;;;2.10;1.43;;;;;;;1.43;57.21;102158.81;4919933;28;98938;-48
2022/03/05 00:58:47;;;;;;;1.30;1.20;;;;;;;1.45;57.17;102161.91;4932634;28;108746;-48
2022/03/05 01:01:12;;;;;;;1.47;1.37;;;;;;;1.51;56.88;102165.75;4915927;28;97596;-49
2022/03/05 01:03:38;;;;;;;1.03;1.03;;;;;;;1.52;56.81;102161.91;4919582;28;97099;-48
2022/03/05 01:06:03;;;;;;;0.87;0.87;;;;;;;1.50;56.70;102160.75;4918416;28;97321;-50
2022/03/05 01:08:29;;;;;;;1.20;1.10;;;;;;;1.50;56.81;102161.53;4918382;28;98704;-48
2022/03/05 01:10:54;;;;;;;2.53;1.37;;;;;;;1.51;56.75;102154.91;4922620;28;96964;-48
2022/03/05 01:13:19;;;;;;;2.33;1.60;;;;;;;1.48;56.84;102154.94;4918009;28;112956;-48
2022/03/05 01:15:45;;;;;;;1.33;1.00;;;;;;;1.42;57.27;102157.25;4921685;28;117386;-48
2022/03/05 01:18:10;;;;;;;2.70;1.17;;;;;;;1.40;56.73;102156.88;4914239;28;96769;-47
2022/03/05 01:20:36;;;;;;;2.20;1.47;;;;;;;1.38;56.95;102161.94;4917908;28;96960;-48
2022/03/05 01:23:01;;;;;;;1.57;1.20;;;;;;;1.40;57.22;102156.09;4920266;28;97044;-48
2022/03/05 01:25:27;;;;;;;2.07;1.10;;;;;;;1.37;57.26;102154.97;4916297;28;97156;-48
2022/03/05 01:27:52;;;;;;;1.33;1.23;;;;;;;1.38;57.25;102156.50;4921185;28;96958;-50
2022/03/05 01:30:17;;;;;;;1.83;1.70;;;;;;;1.39;57.07;102160.00;4917897;28;101675;-48
2022/03/05 01:32:43;;;;;;;2.10;1.50;;;;;;;1.35;57.21;102156.53;4919739;28;96892;-48
2022/03/05 01:35:09;;;;;;;2.30;1.20;;;;;;;1.31;57.44;102150.34;4920187;28;97955;-48
2022/03/05 01:37:34;;;;;;;1.10;1.10;;;;;;;1.30;57.34;102155.00;4918636;28;97054;-48
2022/03/05 01:39:59;;;;;;;1.70;1.27;;;;;;;1.29;57.40;102147.25;4916045;28;127942;-48
2022/03/05 01:42:25;;;;;;;1.20;1.10;;;;;;;1.27;57.40;102144.91;4916379;28;122667;-48
2022/03/05 01:44:50;;;;;;;1.67;1.40;;;;;;;1.29;57.23;102153.44;4921448;28;97225;-48
2022/03/05 01:47:16;;;;;;;1.63;1.27;;;;;;;1.32;57.36;102151.88;4912615;28;97693;-47
2022/03/05 01:49:42;;;;;;;1.60;1.50;;;;;;;1.29;57.11;102148.00;4916759;28;97432;-48
2022/03/05 01:52:08;;;;;;;2.83;2.40;;;;;;;1.23;57.41;102149.59;4916578;28;97194;-48
2022/03/05 01:54:33;;;;;;;3.27;2.97;;;;;;;1.19;57.64;102146.13;4917147;28;96971;-48
2022/03/05 01:57:00;;;;;;;2.60;2.20;;;;;;;1.17;57.38;102147.66;4917148;28;97078;-46
2022/03/05 01:59:26;;;;;;;2.47;1.80;;;;;;;1.13;57.52;102160.44;4919307;28;97177;-48
2022/03/05 02:01:51;;;;;;;1.40;1.30;;;;;;;1.09;57.83;102140.72;4914906;28;96714;-48
2022/03/05 02:04:17;;;;;;;1.63;1.53;;;;;;;1.06;58.13;102138.78;4918471;28;97071;-48
2022/03/05 02:06:42;;;;;;;2.00;1.40;;;;;;;1.05;58.00;102135.28;4920658;28;96893;-48
2022/03/05 02:09:09;;;;;;;1.40;1.33;;;;;;;1.05;57.88;102137.25;4919050;28;97623;-48
2022/03/05 02:11:35;;;;;;;1.37;1.20;;;;;;;1.04;57.83;102136.47;4918245;28;97639;-48
2022/03/05 02:14:00;;;;;;;2.73;1.77;;;;;;;1.04;57.94;102150.03;4917500;28;96880;-48
2022/03/05 02:16:26;;;;;;;3.97;1.83;;;;;;;1.01;57.92;102131.03;4917472;28;97660;-48
2022/03/05 02:18:55;;;;;;;2.07;1.40;;;;;;;1.01;57.62;102131.81;4918003;28;97972;-48
2022/03/05 02:21:22;;;;;;;1.73;1.20;;;;;;;1.03;57.83;102129.50;4915569;28;96885;-48
2022/03/05 02:23:48;;;;;;;1.60;1.50;;;;;;;1.02;57.88;102127.19;4920653;28;96853;-49
2022/03/05 02:26:14;;;;;;;2.30;1.17;;;;;;;0.98;57.99;102131.84;4914782;28;96815;-48
2022/03/05 02:28:39;;;;;;;1.80;1.17;;;;;;;1.01;58.06;102133.75;4917516;28;96967;-47
2022/03/05 02:31:06;;;;;;;5.83;1.20;;;;;;;1.03;57.92;102128.72;4919423;28;97106;-48
2022/03/05 02:33:32;;;;;;;2.10;1.40;;;;;;;1.01;58.19;102131.03;4922219;28;97012;-48
2022/03/05 02:35:57;;;;;;;1.80;1.40;;;;;;;0.99;57.84;102128.72;4921754;28;96890;-48
2022/03/05 02:38:24;;;;;;;0.93;0.90;;;;;;;0.98;57.99;102129.91;4922442;28;96990;-48
2022/03/05 02:40:50;;;;;;;1.27;1.17;;;;;;;0.98;57.91;102129.91;4922032;28;96968;-48
2022/03/05 02:43:16;;;;;;;1.47;1.37;;;;;;;0.99;58.14;102122.53;4918543;28;96894;-48
2022/03/05 02:45:42;;;;;;;1.70;1.57;;;;;;;0.94;58.15;102126.41;4925167;28;97229;-47
2022/03/05 02:48:10;;;;;;;1.73;1.37;;;;;;;0.91;58.32;102127.19;4919209;28;97776;-48
2022/03/05 02:50:36;;;;;;;0.93;0.93;;;;;;;0.89;58.53;102124.13;4922439;28;97234;-47
2022/03/05 02:53:02;;;;;;;1.20;1.10;;;;;;;0.89;58.07;102124.13;4923635;28;96965;-50
2022/03/05 02:55:27;;;;;;;2.10;1.20;;;;;;;0.85;58.46;102120.63;4922705;28;97080;-47
2022/03/05 02:57:53;;;;;;;1.87;1.77;;;;;;;0.86;58.15;102114.03;4920161;28;97177;-49
2022/03/05 03:00:18;;;;;;;1.57;1.47;;;;;;;0.84;58.42;102127.22;4920834;28;97326;-48
2022/03/05 03:02:45;;;;;;;1.70;1.60;;;;;;;0.81;58.60;102117.13;4920338;28;96854;-48
2022/03/05 03:05:11;;;;;;;1.30;1.20;;;;;;;0.84;58.36;102113.66;4922944;28;97427;-47
2022/03/05 03:07:37;;;;;;;2.50;1.37;;;;;;;0.86;58.23;102116.75;4924055;28;100495;-47
2022/03/05 03:10:04;;;;;;;1.97;1.30;;;;;;;0.84;58.23;102119.09;4922258;28;96852;-48
2022/03/05 03:12:29;;;;;;;4.93;1.47;;;;;;;0.80;58.40;102115.59;4920868;28;96866;-48
2022/03/05 03:14:54;;;;;;;2.40;1.37;;;;;;;0.80;58.45;102120.25;4923403;28;112126;-48
2022/03/05 03:17:19;;;;;;;1.57;1.37;;;;;;;0.79;58.73;102113.31;4919251;28;124277;-47
2022/03/05 03:19:45;;;;;;;1.63;1.40;;;;;;;0.77;58.36;102122.56;4920720;28;97336;-48
2022/03/05 03:22:10;;;;;;;1.20;1.10;;;;;;;0.79;58.45;102119.47;4919013;28;116042;-48
2022/03/05 03:24:35;;;;;;;1.77;1.33;;;;;;;0.79;58.31;102124.13;4916398;28;96948;-48
2022/03/05 03:27:02;;;;;;;1.43;1.33;;;;;;;0.79;58.30;102133.00;4922086;28;125291;-49
2022/03/05 03:29:27;;;;;;;2.47;1.77;;;;;;;0.79;58.50;102124.13;4921227;28;96809;-48
2022/03/05 03:31:52;;;;;;;1.23;1.10;;;;;;;0.79;58.40;102130.31;4921398;28;115699;-47
2022/03/05 03:34:18;;;;;;;1.30;1.20;;;;;;;0.75;58.57;102129.53;4918906;28;117963;-48
2022/03/05 03:36:44;;;;;;;3.13;1.10;;;;;;;0.77;58.14;102132.63;4918823;28;97340;-47
2022/03/05 03:39:09;;;;;;;2.93;1.57;;;;;;;0.76;58.25;102131.84;4923045;28;97115;-46
2022/03/05 03:41:34;;;;;;;1.43;1.13;;;;;;;0.75;58.45;102134.94;4920454;28;100074;-48
2022/03/05 03:44:00;;;;;;;2.13;1.30;;;;;;;0.67;58.51;102133.41;4919415;28;115548;-48
2022/03/05 03:46:25;;;;;;;1.13;1.03;;;;;;;0.66;58.55;102140.75;4920063;28;97459;-47
2022/03/05 03:48:50;;;;;;;2.20;1.60;;;;;;;0.66;58.85;102132.66;4919798;28;97149;-50
2022/03/05 03:51:16;;;;;;;1.00;0.90;;;;;;;0.64;58.89;102132.25;4924814;28;118033;-48
2022/03/05 03:53:41;;;;;;;1.10;1.00;;;;;;;0.62;59.04;102131.09;4922076;28;112832;-48
2022/03/05 03:56:06;;;;;;;2.93;1.67;;;;;;;0.58;59.01;102139.22;4921650;28;120018;-48
2022/03/05 03:58:32;;;;;;;1.17;1.03;;;;;;;0.60;59.26;102138.84;4918659;28;98723;-47
2022/03/05 04:00:57;;;;;;;2.13;1.70;;;;;;;0.59;58.58;102129.94;4921389;28;97065;-48
2022/03/05 04:03:22;;;;;;;2.03;1.30;;;;;;;0.57;58.95;102136.88;4922984;28;99904;-48
2022/03/05 04:05:48;;;;;;;1.70;1.40;;;;;;;0.55;58.99;102140.00;4918517;28;102661;-46
2022/03/05 04:10:57;;;;;;;3.27;1.03;;;;;;;0.56;58.82;102146.19;4920746;28;96962;-48
2022/03/05 04:13:22;;;;;;;1.43;0.90;;;;;;;0.53;59.01;102144.25;4919647;28;102969;-48
2022/03/05 04:15:48;;;;;;;1.57;1.47;;;;;;;0.53;58.68;102145.03;4917667;28;97319;-46
2022/03/05 04:18:13;;;;;;;1.20;1.10;;;;;;;0.53;59.05;102152.38;4919956;28;96921;-47
2022/03/05 04:20:38;;;;;;;2.10;1.40;;;;;;;0.55;58.94;102152.75;4923389;28;96799;-48
2022/03/05 04:23:04;;;;;;;1.60;1.10;;;;;;;0.54;58.77;102152.00;4915732;28;116720;-48
2022/03/05 04:25:29;;;;;;;1.73;1.53;;;;;;;0.55;58.64;102153.53;4919993;28;96952;-48
2022/03/05 04:27:54;;;;;;;1.90;1.10;;;;;;;0.56;58.71;102148.91;4917655;28;96940;-48
2022/03/05 04:30:20;;;;;;;1.20;1.20;;;;;;;0.60;58.80;102155.84;4920276;28;97591;-48
2022/03/05 04:32:45;;;;;;;2.70;1.30;;;;;;;0.60;58.74;102147.75;4921567;28;97325;-48
2022/03/05 04:35:11;;;;;;;1.73;1.30;;;;;;;0.58;58.68;102143.88;4917789;28;97202;-47
2022/03/05 04:37:37;;;;;;;1.30;1.20;;;;;;;0.55;58.39;102142.69;4922505;28;97229;-48
2022/03/05 04:40:03;;;;;;;1.10;1.00;;;;;;;0.54;58.49;102145.81;4920334;28;96795;-48
2022/03/05 04:42:28;;;;;;;3.30;1.10;;;;;;;0.53;58.42;102144.25;4915767;28;97085;-48
2022/03/05 04:44:54;;;;;;;1.23;1.13;;;;;;;0.52;58.56;102138.06;4918886;28;127065;-48
2022/03/05 04:47:19;;;;;;;1.13;1.03;;;;;;;0.55;58.60;102133.78;4919393;28;97172;-47
2022/03/05 04:49:45;;;;;;;2.90;1.43;;;;;;;0.56;58.53;102136.13;4918670;28;104972;-48
2022/03/05 04:52:10;;;;;;;2.07;1.20;;;;;;;0.54;58.77;102135.75;4917885;28;97464;-48
2022/03/05 04:54:35;;;;;;;2.70;1.33;;;;;;;0.49;58.55;102141.53;4919536;28;127738;-48
2022/03/05 04:57:01;;;;;;;1.70;1.43;;;;;;;0.50;58.72;102145.03;4917945;28;97615;-48
2022/03/05 04:59:26;;;;;;;1.27;1.17;;;;;;;0.49;58.84;102143.47;4918695;28;96835;-47
2022/03/05 05:01:52;;;;;;;3.03;1.70;;;;;;;0.48;58.73;102141.94;4919638;28;97106;-48
2022/03/05 05:04:18;;;;;;;2.27;1.27;;;;;;;0.48;58.78;102150.81;4914827;28;96811;-48
2022/03/05 05:06:44;;;;;;;1.33;1.13;;;;;;;0.46;58.64;102146.97;4918291;28;96743;-48
2022/03/05 05:09:09;;;;;;;1.37;1.20;;;;;;;0.45;58.95;102158.94;4918384;28;96701;-47
2022/03/05 05:11:35;;;;;;;1.43;1.33;;;;;;;0.45;58.81;102148.13;4923459;28;97001;-48
2022/03/05 05:14:00;;;;;;;1.80;1.53;;;;;;;0.49;58.84;102155.09;4920077;28;96822;-48
2022/03/05 05:16:25;;;;;;;2.10;1.83;;;;;;;0.53;58.46;102152.38;4917037;28;127106;-48
2022/03/05 05:21:34;;;;;;;1.50;1.40;;;;;;;0.54;58.62;102168.25;4920697;28;96670;-47
2022/03/05 05:24:00;;;;;;;4.10;1.50;;;;;;;0.56;58.72;102173.25;4917690;28;102161;-47
2022/03/05 05:26:25;;;;;;;4.10;1.53;;;;;;;0.58;58.51;102179.06;4917462;28;96902;-48
2022/03/05 05:28:50;;;;;;;1.53;1.40;;;;;;;0.53;58.52;102174.81;4919024;28;97066;-48
2022/03/05 05:31:16;;;;;;;1.77;1.07;;;;;;;0.46;58.52;102182.16;4916454;28;117574;-48
2022/03/05 05:33:44;;;;;;;1.10;0.90;;;;;;;0.50;58.68;102177.53;4917804;28;122970;-48
2022/03/05 05:36:11;;;;;;;1.33;1.23;;;;;;;0.51;58.34;102158.19;4923412;28;97175;-46
2022/03/05 05:38:36;;;;;;;1.73;1.50;;;;;;;0.51;58.26;102166.28;4917560;28;96880;-48
2022/03/05 05:41:02;;;;;;;2.17;1.37;;;;;;;0.47;58.16;102164.75;4918436;28;97023;-47
2022/03/05 05:43:29;;;;;;;2.47;1.30;;;;;;;0.42;58.16;102162.41;4920642;28;97286;-47
2022/03/05 05:45:54;;;;;;;1.20;1.10;;;;;;;0.41;58.75;102164.38;4917956;28;126515;-45
2022/03/05 05:48:19;;;;;;;1.30;1.20;;;;;;;0.39;58.23;102174.81;4917311;28;96882;-46
2022/03/05 05:50:45;;;;;;;1.43;1.30;;;;;;;0.34;58.82;102164.34;4917987;28;103077;-49
2022/03/05 05:53:11;;;;;;;1.27;1.17;;;;;;;0.33;58.24;102167.44;4915385;28;98480;-46
2022/03/05 05:55:36;;;;;;;1.70;1.60;;;;;;;0.28;58.59;102171.31;4917393;28;97183;-46
2022/03/05 05:58:02;;;;;;;2.77;1.67;;;;;;;0.25;58.54;102176.69;4917828;28;96893;-47
2022/03/05 06:00:27;;;;;;;2.10;1.80;;;;;;;0.22;58.66;102172.06;4921371;28;97717;-47
2022/03/05 06:02:52;;;;;;;3.33;1.63;;;;;;;0.19;58.81;102180.94;4918104;28;97430;-48
2022/03/05 06:05:18;;;;;;;1.53;1.23;;;;;;;0.15;59.18;102177.47;4917022;28;99017;-46
2022/03/05 06:07:43;;;;;;;2.63;1.40;;;;;;;0.14;59.50;102181.31;4916064;28;100165;-46
2022/03/05 06:10:10;;;;;;;1.80;1.33;;;;;;;0.12;59.17;102172.81;4916784;28;114281;-48
2022/03/05 06:12:35;;;;;;;1.70;1.53;;;;;;;0.11;59.09;102184.81;4915861;28;98453;-46
2022/03/05 06:15:03;;;;;;;3.63;1.80;;;;;;;0.08;59.40;102178.22;4918928;28;98310;-47
2022/03/05 06:17:29;;;;;;;2.43;1.90;;;;;;;0.08;59.13;102188.25;4918918;28;97057;-49
2022/03/05 06:19:54;;;;;;;1.60;1.50;;;;;;;0.09;59.23;102174.34;4917714;28;96973;-45
2022/03/05 06:22:19;;;;;;;2.20;1.80;;;;;;;0.09;59.61;102174.34;4916342;28;124105;-48
2022/03/05 06:24:45;;;;;;;4.33;1.77;;;;;;;0.11;59.29;102187.50;4915748;28;97187;-45
2022/03/05 06:27:10;;;;;;;2.50;1.73;;;;;;;0.12;59.48;102183.63;4917892;28;97047;-45
2022/03/05 06:29:35;;;;;;;5.90;2.90;;;;;;;0.14;59.35;102184.03;4919513;28;96995;-45
2022/03/05 06:32:01;;;;;;;11.93;3.40;;;;;;;0.14;59.16;102186.72;4918881;28;97819;-46
2022/03/05 06:34:27;;;;;;;3.70;2.30;;;;;;;0.16;59.01;102187.13;4916926;28;97880;-46
2022/03/05 06:36:57;;;;;;;3.30;1.90;;;;;;;0.19;59.34;102194.47;4914789;28;97323;-46
2022/03/05 06:39:22;;;;;;;2.70;1.67;;;;;;;0.22;59.15;102193.72;4920001;28;98427;-51
2022/03/05 06:41:48;;;;;;;2.13;1.60;;;;;;;0.24;59.19;102196.81;4921941;28;97480;-45
2022/03/05 06:44:13;;;;;;;2.20;1.70;;;;;;;0.23;59.14;102189.84;4917159;28;97105;-49
2022/03/05 06:46:38;;;;;;;1.80;1.70;;;;;;;0.23;59.25;102206.06;4917774;28;96856;-47
2022/03/05 06:49:03;;;;;;;2.40;1.90;;;;;;;0.27;59.41;102201.44;4917458;28;117064;-47
2022/03/05 06:51:29;;;;;;;2.27;1.90;;;;;;;0.30;59.47;102206.09;4916966;28;97043;-47
2022/03/05 06:53:54;;;;;;;2.80;1.97;;;;;;;0.34;59.22;102206.88;4919903;28;127885;-47
2022/03/05 06:56:20;;;;;;;1.53;1.40;;;;;;;0.37;59.18;102201.47;4913349;28;96933;-46
2022/03/05 06:58:45;;;;;;;1.90;1.50;;;;;;;0.42;59.02;102203.03;4918969;28;97378;-47
2022/03/05 07:01:10;;;;;;;2.50;1.60;;;;;;;0.48;59.21;102206.91;4918242;28;97709;-47
2022/03/05 07:03:36;;;;;;;2.87;1.47;;;;;;;0.52;59.39;102213.88;4919646;28;97240;-48
2022/03/05 07:06:02;;;;;;;2.43;1.20;;;;;;;0.55;59.14;102206.91;4918730;28;96855;-46
2022/03/05 07:08:27;;;;;;;1.60;1.50;;;;;;;0.61;59.37;102213.50;4919449;28;97394;-45
2022/03/05 07:10:53;;;;;;;2.20;1.70;;;;;;;0.69;59.34;102228.59;4916282;28;97372;-49
2022/03/05 07:13:18;;;;;;;3.70;1.47;;;;;;;0.74;59.04;102225.50;4917728;28;108192;-46
2022/03/05 07:15:43;;;;;;;1.67;1.57;;;;;;;0.77;59.11;102224.72;4918733;28;97494;-46
2022/03/05 07:18:08;;;;;;;1.70;1.57;;;;;;;0.84;59.07;102229.38;4918657;28;118125;-48
2022/03/05 07:20:34;;;;;;;2.23;1.87;;;;;;;0.86;59.19;102224.34;4920472;28;128138;-47
2022/03/05 07:22:59;;;;;;;3.53;1.70;;;;;;;0.96;59.19;102223.56;4918346;28;126566;-46
2022/03/05 07:25:25;;;;;;;2.20;1.73;;;;;;;1.03;59.14;102227.03;4923415;28;96822;-45
2022/03/05 07:27:50;;;;;;;3.93;2.03;;;;;;;1.10;59.20;102229.75;4923671;28;97331;-46
2022/03/05 07:30:15;;;;;;;3.53;1.93;;;;;;;1.16;59.22;102228.19;4915559;28;97209;-47
2022/03/05 07:32:41;;;;;;;2.17;1.80;;;;;;;1.23;59.06;102227.41;4912888;28;125237;-45
2022/03/05 07:35:07;;;;;;;3.80;2.03;;;;;;;1.30;59.10;102230.13;4919229;28;98332;-46
2022/03/05 07:37:33;;;;;;;4.10;2.40;;;;;;;1.37;58.88;102236.31;4918678;28;97359;-46
2022/03/05 07:40:00;;;;;;;1.93;1.60;;;;;;;1.47;59.14;102240.94;4918927;28;97760;-49
2022/03/05 07:42:25;;;;;;;1.70;1.60;;;;;;;1.53;58.76;102236.66;4919253;28;96893;-47
2022/03/05 07:44:50;;;;;;;1.50;1.40;;;;;;;1.60;58.84;102241.28;4920708;28;96881;-50
2022/03/05 07:47:16;;;;;;;2.47;1.70;;;;;;;1.67;58.92;102240.50;4919686;28;97298;-46
2022/03/05 07:49:41;;;;;;;1.77;1.67;;;;;;;1.70;59.02;102243.22;4922469;28;96980;-45
2022/03/05 07:52:06;;;;;;;2.50;1.80;;;;;;;1.78;59.23;102246.66;4916442;28;97745;-49
2022/03/05 07:54:32;;;;;;;3.70;2.20;;;;;;;1.87;59.09;102241.59;4917810;28;113164;-47
2022/03/05 07:56:57;;;;;;;3.57;2.87;;;;;;;1.94;59.56;102247.78;4915607;28;96927;-48
2022/03/05 07:59:23;;;;;;;3.50;1.83;;;;;;;2.04;59.28;102252.38;4919072;28;96952;-46
2022/03/05 08:01:48;;;;;;;3.57;2.13;;;;;;;2.11;59.00;102251.56;4918530;28;97351;-46
2022/03/05 08:04:13;;;;;;;2.43;2.23;;;;;;;2.17;59.09;102244.56;4921057;28;118084;-46
2022/03/05 08:06:39;;;;;;;2.17;1.73;;;;;;;2.26;59.11;102244.91;4919357;28;97173;-48
2022/03/05 08:09:04;;;;;;;3.53;2.23;;;;;;;2.31;59.03;102244.50;4919532;28;126832;-48
2022/03/05 08:11:30;;;;;;;5.43;2.40;;;;;;;2.36;59.05;102254.94;4921739;28;98455;-46
2022/03/05 08:13:55;;;;;;;3.33;2.03;;;;;;;2.48;58.94;102240.13;4919899;28;97262;-47
2022/03/05 08:16:20;;;;;;;2.10;1.90;;;;;;;2.60;59.04;102250.53;4911833;28;116672;-47
2022/03/05 08:18:45;;;;;;;2.80;2.10;;;;;;;2.71;58.70;102249.28;4919682;28;101420;-46
2022/03/05 08:21:11;;;;;;;2.57;2.20;;;;;;;2.85;59.07;102246.47;4919338;28;96884;-51
2022/03/05 08:23:36;;;;;;;2.60;2.30;;;;;;;2.96;58.87;102255.31;4919617;28;97031;-46
2022/03/05 08:26:02;;;;;;;2.20;2.00;;;;;;;3.05;58.69;102249.41;4920373;28;96978;-47
2022/03/05 08:28:28;;;;;;;2.53;1.80;;;;;;;3.13;58.78;102248.16;4915560;28;97457;-48
2022/03/05 08:30:53;;;;;;;2.57;2.07;;;;;;;3.25;58.77;102252.34;4923571;28;97263;-46
2022/03/05 08:33:21;;;;;;;1.83;1.70;;;;;;;3.36;58.65;102250.31;4915111;28;116101;-47
2022/03/05 08:35:46;;;;;;;2.50;1.80;;;;;;;3.47;58.64;102246.28;4921604;28;97360;-47
2022/03/05 08:38:11;;;;;;;8.40;2.10;;;;;;;3.56;58.55;102252.03;4917352;28;127956;-47
2022/03/05 08:40:37;;;;;;;3.63;2.47;;;;;;;3.63;58.64;102251.97;4916581;28;124568;-46
2022/03/05 08:43:02;;;;;;;2.90;2.23;;;;;;;3.77;58.63;102245.59;4922765;28;96986;-48
2022/03/05 08:45:28;;;;;;;2.63;2.37;;;;;;;3.86;58.38;102248.59;4920274;28;116367;-48
2022/03/05 08:47:53;;;;;;;2.63;2.40;;;;;;;3.95;58.47;102246.16;4917415;28;97717;-49
2022/03/05 08:50:18;;;;;;;4.23;2.10;;;;;;;4.05;57.95;102245.25;4918266;28;97152;-46
2022/03/05 08:52:43;;;;;;;3.43;2.03;;;;;;;4.18;58.08;102238.06;4920035;28;97546;-47
2022/03/05 08:55:14;;;;;;;2.53;2.00;;;;;;;4.32;57.63;102232.44;4922573;28;96957;-48
2022/03/05 08:57:40;;;;;;;2.30;2.10;;;;;;;4.46;57.64;102237.69;4917352;28;97212;-49
2022/03/05 09:00:08;;;;;;;4.50;2.27;;;;;;;4.57;57.67;102238.31;4909947;28;97096;-49
2022/03/05 09:02:34;;;;;;;2.13;1.93;;;;;;;4.66;57.37;102237.78;4909649;28;97910;-50
2022/03/05 09:04:59;;;;;;;3.93;1.90;;;;;;;4.75;57.42;102234.53;4905413;28;97686;-48
2022/03/05 09:07:25;;;;;;;2.60;2.03;;;;;;;4.86;57.10;102240.59;4887762;28;96919;-47
2022/03/05 09:09:50;;;;;;;2.50;2.10;;;;;;;4.98;56.90;102229.13;4903084;28;96950;-47
2022/03/05 09:12:15;;;;;;;2.50;2.30;;;;;;;5.05;56.90;102229.75;4886337;28;110894;-48
2022/03/05 09:14:41;;;;;;;3.73;2.30;;;;;;;5.15;56.71;102237.00;4923060;28;116938;-47
2022/03/05 09:17:06;;;;;;;1.87;1.70;;;;;;;5.25;56.33;102222.38;4900101;28;97411;-49
2022/03/05 09:19:32;;;;;;;2.30;2.10;;;;;;;5.41;56.15;102223.66;4889907;28;98438;-47
2022/03/05 09:21:57;;;;;;;2.20;2.10;;;;;;;5.59;56.48;102226.84;4919416;28;96900;-52
2022/03/05 09:24:23;;;;;;;4.47;2.17;;;;;;;5.80;56.35;102221.75;4919855;28;97274;-51
2022/03/05 09:26:48;;;;;;;2.30;2.10;;;;;;;6.02;55.70;102220.16;4915064;28;98649;-49
2022/03/05 09:29:13;;;;;;;3.90;2.27;;;;;;;6.20;55.22;102219.00;4918530;28;97290;-49
2022/03/05 09:31:40;;;;;;;3.30;1.80;;;;;;;6.40;55.36;102219.72;4916501;28;97267;-46
2022/03/05 09:34:05;;;;;;;1.77;1.67;;;;;;;6.57;54.62;102219.31;4916974;28;96616;-50
2022/03/05 09:36:31;;;;;;;2.73;2.10;;;;;;;6.64;54.76;102221.84;4917906;28;97117;-47
2022/03/05 09:38:57;;;;;;;2.60;2.40;;;;;;;6.72;54.25;102228.72;4915620;28;97176;-46
2022/03/05 09:41:22;;;;;;;2.50;2.07;;;;;;;6.85;54.22;102214.34;4919029;28;97011;-49
2022/03/05 09:43:48;;;;;;;2.10;2.00;;;;;;;7.00;54.26;102221.00;4916475;28;116937;-47
2022/03/05 09:46:18;;;;;;;3.00;2.57;;;;;;;7.09;53.31;102219.22;4920071;28;98201;-48
2022/03/05 09:48:44;;;;;;;2.83;2.17;;;;;;;7.16;54.25;102213.56;4917270;28;96897;-47
2022/03/05 09:51:09;;;;;;;2.33;2.17;;;;;;;7.26;53.99;102223.44;4916129;28;96993;-52
2022/03/05 09:53:35;;;;;;;2.33;2.13;;;;;;;7.37;53.46;102212.22;4916408;28;110604;-53
2022/03/05 09:56:00;;;;;;;2.03;1.87;;;;;;;7.46;53.25;102215.88;4917024;28;96857;-48
2022/03/05 09:58:25;;;;;;;2.30;2.10;;;;;;;7.53;53.20;102215.66;4916203;28;97112;-53
2022/03/05 10:00:51;;;;;;;6.53;2.70;;;;;;;7.56;53.11;102216.78;4920404;28;97122;-46
2022/03/05 10:03:17;;;;;;;2.37;2.17;;;;;;;7.56;52.10;102220.28;4917882;28;97862;-49
2022/03/05 10:05:42;;;;;;;2.40;1.80;;;;;;;7.57;52.77;102213.63;4919163;28;97342;-47
2022/03/05 10:08:15;;;;;;;2.27;2.17;;;;;;;7.66;52.11;102212.22;4920304;28;119486;-48
2022/03/05 10:10:49;;;;;;;2.00;1.87;;;;;;;7.71;51.15;102208.94;4922057;28;97063;-52
2022/03/05 10:13:21;;;;;;;3.87;3.10;;;;;;;7.68;51.34;102204.31;4918492;28;97175;-48
2022/03/05 10:15:48;;;;;;;3.03;2.67;;;;;;;7.64;52.20;102206.41;4917375;28;98603;-51
2022/03/05 10:18:13;;;;;;;2.83;2.40;;;;;;;7.70;52.25;102202.69;4919799;28;97133;-46
2022/03/05 10:20:44;;;;;;;3.47;2.63;;;;;;;7.81;52.17;102199.66;4920494;28;97162;-46
2022/03/05 10:23:12;;;;;;;2.83;2.60;;;;;;;7.85;51.95;102205.78;4916434;28;96800;-47
2022/03/05 10:25:38;;;;;;;2.57;2.37;;;;;;;7.94;52.36;102208.66;4921436;28;97072;-51
2022/03/05 10:28:15;;;;;;;3.07;2.33;;;;;;;7.99;51.12;102205.41;4920250;28;97186;-46
2022/03/05 10:30:43;;;;;;;3.17;2.87;;;;;;;8.01;51.80;102208.47;4917067;28;96978;-48
2022/03/05 10:33:23;;;;;;;3.47;2.13;;;;;;;7.99;50.09;102208.13;4921861;28;97663;-46
2022/03/05 10:35:48;;;;;;;2.40;2.20;;;;;;;7.99;51.44;102208.13;4919702;28;100560;-47
2022/03/05 10:38:14;;;;;;;2.57;2.10;;;;;;;8.03;51.77;102201.34;4918316;28;97036;-51
2022/03/05 10:40:39;;;;;;;3.03;2.70;;;;;;;8.09;51.50;102202.34;4917800;28;117599;-50
2022/03/05 10:43:07;;;;;;;14.93;2.43;;;;;;;8.15;51.80;102203.31;4919117;28;97092;-47
2022/03/05 10:45:54;;;;;;;2.97;1.90;;;;;;;8.21;49.72;102204.31;4916337;28;96938;-48
2022/03/05 10:48:22;;;;;;;2.67;2.30;;;;;;;8.27;51.67;102207.31;4917020;28;100416;-50
2022/03/05 10:50:47;;;;;;;3.93;2.30;;;;;;;8.27;51.17;102202.59;4913407;28;96858;-46
2022/03/05 10:53:13;;;;;;;2.90;2.40;;;;;;;8.30;50.92;102209.16;4920643;28;100740;-48
2022/03/05 10:55:38;;;;;;;5.33;2.40;;;;;;;8.33;50.43;102205.56;4920714;28;126611;-49
2022/03/05 10:58:06;;;;;;;2.30;2.10;;;;;;;8.39;50.84;102203.78;4921470;28;97306;-47
2022/03/05 11:00:32;;;;;;;2.17;2.00;;;;;;;8.43;51.24;102198.97;4921060;28;96831;-48
2022/03/05 11:03:03;;;;;;;3.20;2.90;;;;;;;8.54;51.02;102202.13;4925920;28;97264;-51
2022/03/05 11:05:29;;;;;;;2.83;2.53;;;;;;;8.66;50.88;102192.38;4920574;28;97120;-46
2022/03/05 11:07:56;;;;;;;2.30;2.10;;;;;;;8.70;50.64;102193.00;4921347;28;96835;-47
2022/03/05 11:10:25;;;;;;;3.10;2.30;;;;;;;8.74;50.50;102197.19;4922617;28;97177;-47
2022/03/05 11:12:52;;;;;;;2.87;2.60;;;;;;;8.94;50.41;102191.44;4918786;28;97019;-47
2022/03/05 11:15:18;;;;;;;3.93;2.73;;;;;;;9.09;50.21;102197.97;4921158;28;97988;-47
2022/03/05 11:17:46;;;;;;;2.50;2.30;;;;;;;9.16;49.92;102205.97;4919202;28;97033;-50
2022/03/05 11:20:12;;;;;;;2.50;2.30;;;;;;;9.18;49.48;102200.03;4919000;28;96790;-50
2022/03/05 11:22:37;;;;;;;2.33;2.17;;;;;;;9.13;49.52;102204.09;4913002;28;97246;-46
2022/03/05 11:25:04;;;;;;;2.60;2.33;;;;;;;9.12;49.82;102199.06;4917676;28;96835;-47
2022/03/05 11:27:30;;;;;;;2.80;2.60;;;;;;;9.15;49.26;102201.72;4904449;28;97066;-47
2022/03/05 11:29:56;;;;;;;3.43;2.30;;;;;;;9.13;49.66;102195.13;4898135;28;96904;-46